»·PEaware :: N74KW KFHR-KGEG

N74KW :: KFHR-KGEG

FLIGHT INFORMATION

Flight Status: Arrived
Operator: Privately registered:
United States
More flights under this callsign
Pilot: Charles C. (26995)
Aircraft: MCDONNELL-DOUGLAS SKYTRAIN C-47
(DC3)
More flights by this aircraft type
Origin: KFHR Friday Harbor
United States
Destination: KGEG Spokane Intl
United States
More flights between these airports :: More routes between these airports
Route: BJAAY 1S2 EPH
File this flight plan on PilotEdge
Remarks:
Altitude:
(Current/Filed)
9,500ft
Speed:
(Current/Filed)
150kts
Departed: 05-Sep-20 08:11 AM
Arrived: 05-Sep-20 09:49 AM
Distance/Time
Traveled:
227nm/1:38
Distance/Time
To Go:
Arrived

Flight Plot

Page will automatically refresh every two minutes.

Flight plan parsing failed; only flown route is shown


Map Options




Map Legend


Flown Route
Filed Route
Departure Airport
Arrival Airport
Navaid (VOR, NDB)
Fix

Horizontal Profiles

Position Reports

Time Latitude Longitude Heading Altitude Ground
Speed
05-Sep-20 08:03 48.524754 -123.025886 170 115ft 0kts
05-Sep-20 08:04 48.524754 -123.025886 170 115ft 0kts
05-Sep-20 08:05 48.524754 -123.025886 170 115ft 0kts
05-Sep-20 08:06 48.524754 -123.025886 170 115ft 0kts
05-Sep-20 08:07 48.524754 -123.025886 170 115ft 0kts
05-Sep-20 08:08 48.525598 -123.025246 357 117ft 12kts
05-Sep-20 08:09 48.526374 -123.024639 190 118ft 0kts
05-Sep-20 08:10 48.510562 -123.022598 169 463ft 103kts
05-Sep-20 08:11 48.499942 -122.983853 86 1137ft 115kts
05-Sep-20 08:12 48.500729 -122.934567 93 1757ft 119kts
05-Sep-20 08:13 48.515048 -122.902445 334 2352ft 117kts
05-Sep-20 08:14 48.531871 -122.941244 294 2958ft 111kts
05-Sep-20 08:15 48.541047 -122.982979 234 3521ft 107kts
05-Sep-20 08:16 48.520347 -122.963132 107 4125ft 123kts
05-Sep-20 08:17 48.511253 -122.913322 107 4745ft 123kts
05-Sep-20 08:18 48.501993 -122.863392 107 5334ft 123kts
05-Sep-20 08:20 48.514931 -122.829533 333 5865ft 116kts
05-Sep-20 08:21 48.528893 -122.868705 254 6399ft 108kts
05-Sep-20 08:22 48.506870 -122.858788 107 6884ft 125kts
05-Sep-20 08:23 48.497016 -122.807640 107 7445ft 128kts
05-Sep-20 08:24 48.487233 -122.756471 107 8123ft 125kts
05-Sep-20 08:25 48.477631 -122.705982 107 8804ft 124kts
05-Sep-20 08:26 48.468102 -122.655685 106 9442ft 124kts
05-Sep-20 08:27 48.457754 -122.604832 106 10142ft 130kts
05-Sep-20 08:28 48.446487 -122.552899 106 10869ft 131kts
05-Sep-20 08:29 48.433356 -122.495683 106 10974ft 172kts
05-Sep-20 08:30 48.416036 -122.417021 106 9931ft 211kts
05-Sep-20 08:31 48.398418 -122.335199 107 9655ft 193kts
05-Sep-20 08:32 48.382486 -122.260941 107 9659ft 182kts
05-Sep-20 08:33 48.367103 -122.189469 107 9671ft 177kts
05-Sep-20 08:33 48.352976 -122.132428 107 9664ft 172kts
05-Sep-20 08:35 48.333477 -122.054014 107 9666ft 170kts
05-Sep-20 08:36 48.316909 -121.987524 107 9667ft 169kts
05-Sep-20 08:36 48.303094 -121.932138 107 9667ft 169kts
05-Sep-20 08:37 48.286550 -121.865864 107 9667ft 169kts
05-Sep-20 08:39 48.267233 -121.788549 107 9667ft 169kts
05-Sep-20 08:39 48.253490 -121.733585 107 9667ft 169kts
05-Sep-20 08:40 48.236900 -121.667282 107 9667ft 169kts
05-Sep-20 08:42 48.217548 -121.590003 107 9667ft 169kts
05-Sep-20 08:42 48.203739 -121.534899 107 9667ft 169kts
05-Sep-20 08:43 48.187115 -121.468611 107 9668ft 169kts
05-Sep-20 08:44 48.170338 -121.402581 110 9667ft 170kts
05-Sep-20 08:45 48.150090 -121.338842 112 9668ft 170kts
05-Sep-20 08:46 48.129500 -121.274282 112 9668ft 170kts
05-Sep-20 08:47 48.108870 -121.209645 112 9668ft 170kts
05-Sep-20 08:48 48.085440 -121.147469 123 9629ft 174kts
05-Sep-20 08:49 48.059001 -121.086915 123 9576ft 177kts
05-Sep-20 08:50 48.031848 -121.025293 123 9522ft 177kts
05-Sep-20 08:51 48.004489 -120.963744 123 9468ft 177kts
05-Sep-20 08:52 47.977258 -120.902808 123 9456ft 175kts
05-Sep-20 08:53 47.950310 -120.842562 123 9457ft 174kts
05-Sep-20 08:54 47.923539 -120.782760 123 9457ft 173kts
05-Sep-20 08:55 47.896703 -120.722863 123 9456ft 173kts
05-Sep-20 08:56 47.869862 -120.663017 123 9456ft 173kts
05-Sep-20 08:57 47.843128 -120.603449 123 9456ft 173kts
05-Sep-20 08:58 47.816413 -120.543970 123 9456ft 173kts
05-Sep-20 08:59 47.789722 -120.484591 123 9456ft 173kts
05-Sep-20 09:00 47.765441 -120.422751 117 9457ft 173kts
05-Sep-20 09:01 47.742029 -120.360333 118 9457ft 173kts
05-Sep-20 09:02 47.718692 -120.299072 119 9474ft 172kts
05-Sep-20 09:03 47.694958 -120.237038 119 9474ft 172kts
05-Sep-20 09:04 47.671175 -120.175027 119 9474ft 173kts
05-Sep-20 09:05 47.647360 -120.113080 119 9474ft 173kts
05-Sep-20 09:06 47.623496 -120.051148 119 9474ft 173kts
05-Sep-20 09:07 47.599597 -119.989274 119 9475ft 173kts
05-Sep-20 09:08 47.575626 -119.927361 119 9475ft 173kts
05-Sep-20 09:09 47.551710 -119.865722 119 9475ft 172kts
05-Sep-20 09:10 47.527838 -119.804331 119 9475ft 172kts
05-Sep-20 09:11 47.507073 -119.741711 83 9480ft 168kts
05-Sep-20 09:12 47.511442 -119.672558 83 9475ft 169kts
05-Sep-20 09:13 47.515613 -119.603338 83 9475ft 169kts
05-Sep-20 09:14 47.519704 -119.534135 83 9475ft 169kts
05-Sep-20 09:15 47.523757 -119.464752 83 9475ft 169kts
05-Sep-20 09:16 47.527762 -119.395460 83 9475ft 169kts
05-Sep-20 09:17 47.531641 -119.327647 84 9474ft 169kts
05-Sep-20 09:18 47.535575 -119.258124 84 9474ft 169kts
05-Sep-20 09:19 47.539457 -119.188791 84 9474ft 169kts
05-Sep-20 09:20 47.543287 -119.119605 84 9475ft 169kts
05-Sep-20 09:21 47.547085 -119.050240 84 9475ft 169kts
05-Sep-20 09:22 47.550819 -118.980795 83 9474ft 170kts
05-Sep-20 09:23 47.554614 -118.910222 83 9474ft 174kts
05-Sep-20 09:24 47.558491 -118.837590 84 9475ft 179kts
05-Sep-20 09:25 47.562400 -118.762690 85 9477ft 185kts
05-Sep-20 09:26 47.566336 -118.685951 85 9476ft 188kts
05-Sep-20 09:27 47.570274 -118.608558 85 9476ft 189kts
05-Sep-20 09:28 47.574162 -118.530697 84 9481ft 189kts
05-Sep-20 09:29 47.578307 -118.453148 92 9500ft 185kts
05-Sep-20 09:30 47.581704 -118.378423 91 9514ft 179kts
05-Sep-20 09:31 47.585148 -118.305857 91 9460ft 183kts
05-Sep-20 09:32 47.588648 -118.228966 91 9281ft 188kts
05-Sep-20 09:33 47.592196 -118.151185 91 9137ft 189kts
05-Sep-20 09:34 47.595805 -118.073119 91 8912ft 192kts
05-Sep-20 09:35 47.599357 -117.995387 91 8486ft 187kts
05-Sep-20 09:36 47.602796 -117.918797 91 8065ft 185kts
05-Sep-20 09:37 47.606141 -117.843196 91 7645ft 182kts
05-Sep-20 09:38 47.609401 -117.768419 90 7233ft 180kts
05-Sep-20 09:39 47.612566 -117.694728 90 6827ft 178kts
05-Sep-20 09:40 47.615523 -117.621492 94 6423ft 176kts
05-Sep-20 09:41 47.646037 -117.566429 45 5941ft 172kts
05-Sep-20 09:42 47.680580 -117.519741 45 5430ft 162kts
05-Sep-20 09:43 47.713973 -117.478813 62 4639ft 140kts
05-Sep-20 09:44 47.695894 -117.439696 134 3724ft 112kts
05-Sep-20 09:45 47.671049 -117.454004 227 3390ft 101kts
05-Sep-20 09:46 47.652965 -117.486121 215 2986ft 96kts
05-Sep-20 09:47 47.634971 -117.512615 222 2477ft 83kts
05-Sep-20 09:48 47.623474 -117.529961 226 2358ft 29kts
05-Sep-20 09:49 47.620708 -117.531941 141 2365ft 4kts
05-Sep-20 09:50 47.620415 -117.531094 53 2366ft 9kts
05-Sep-20 09:51 47.620503 -117.528062 269 2366ft 0kts
05-Sep-20 09:52 47.620502 -117.528061 269 2366ft 0kts
05-Sep-20 09:53 47.620502 -117.528061 269 2366ft 0kts
05-Sep-20 09:54 47.620502 -117.528061 269 2366ft 0kts
05-Sep-20 09:55 47.620502 -117.528061 269 2366ft 0kts
05-Sep-20 09:56 47.620502 -117.528061 269 2366ft 0kts
05-Sep-20 09:57 47.620502 -117.528061 269 2366ft 0kts
05-Sep-20 09:58 47.620502 -117.528061 269 2366ft 0kts
05-Sep-20 09:59 47.620502 -117.528061 269 2366ft 0kts
05-Sep-20 10:00 47.620502 -117.528061 269 2366ft 0kts

Navigation Log

Ident Type
Flight plan parsing failed, navigation log unavailable